Terminal Aerodrome Forecast
Issued by NWS Albuquerque, NM

Home | Current Version | Previous Version | Text Only | Print | Product List | Glossary On
Versions: 1 2 3 4 5 6 7 8 9 10 11 12 13 14 15 16 17 18 19
000
FTUS45 KABQ 211700
TAFABQ
TAF
KABQ 211740Z 2118/2218 VRB05KT P6SM FEW040 SCT070
     FM212030 18006KT P6SM VCSH BKN070
     FM212200 19008KT P6SM VCTS BKN070CB
     FM220100 13006KT P6SM VCSH BKN080
     FM220700 11005KT P6SM BKN070
     FM221000 VRB05KT P6SM FEW030 SCT100=

USA.gov is the U.S. government's official web portal to all federal, state and local government web resources and services.